createdAt,value
2018-10-09T00:00:06.533Z,8.66
2018-10-09T00:02:35.927Z,8.78
2018-10-09T00:05:05.823Z,8.83
2018-10-09T00:07:35.350Z,8.80
2018-10-09T00:10:04.868Z,8.76
2018-10-09T00:12:34.220Z,8.71
2018-10-09T00:15:03.685Z,8.72
2018-10-09T00:17:33.034Z,8.71
2018-10-09T00:20:02.442Z,8.67
2018-10-09T00:22:31.859Z,8.71
2018-10-09T00:25:01.258Z,8.70
2018-10-09T00:27:30.619Z,8.68
2018-10-09T00:30:00.044Z,8.61
2018-10-09T00:32:29.483Z,8.53
2018-10-09T00:34:58.835Z,8.41
2018-10-09T00:37:28.217Z,8.37
2018-10-09T00:39:57.665Z,8.35
2018-10-09T00:42:27.036Z,8.33
2018-10-09T00:44:56.482Z,8.32
2018-10-09T00:47:25.864Z,8.35
2018-10-09T00:49:55.303Z,8.44
2018-10-09T00:52:24.709Z,8.45
2018-10-09T00:54:54.156Z,8.45
2018-10-09T00:57:23.515Z,8.46
2018-10-09T00:59:52.919Z,8.51
2018-10-09T01:02:22.360Z,8.56
2018-10-09T01:04:51.812Z,8.59
2018-10-09T01:07:21.246Z,8.70
2018-10-09T01:09:50.636Z,8.75
2018-10-09T01:12:20.100Z,8.80
2018-10-09T01:14:49.525Z,8.81
2018-10-09T01:17:18.963Z,8.79
2018-10-09T01:19:48.392Z,8.72
2018-10-09T01:22:17.818Z,8.66
2018-10-09T01:24:47.197Z,8.75
2018-10-09T01:27:16.560Z,8.79
2018-10-09T01:29:45.943Z,8.85
2018-10-09T01:32:15.314Z,8.94
2018-10-09T01:34:44.723Z,9.01
2018-10-09T01:37:14.107Z,9.03
2018-10-09T01:39:43.564Z,9.12
2018-10-09T01:42:12.906Z,9.13
2018-10-09T01:44:42.277Z,9.14
2018-10-09T01:47:11.643Z,9.16
2018-10-09T01:49:40.988Z,9.10
2018-10-09T01:52:10.409Z,9.05
2018-10-09T01:54:39.767Z,8.93
2018-10-09T01:57:09.149Z,8.97
2018-10-09T01:59:38.523Z,8.91
2018-10-09T02:02:07.865Z,8.89
2018-10-09T02:04:37.303Z,8.79
2018-10-09T02:07:06.923Z,8.75
2018-10-09T02:09:36.327Z,8.66
2018-10-09T02:12:05.751Z,8.59
2018-10-09T02:14:35.198Z,8.54
2018-10-09T02:17:04.601Z,8.50
2018-10-09T02:19:33.938Z,8.34
2018-10-09T02:22:03.395Z,8.35
2018-10-09T02:24:32.747Z,8.31
2018-10-09T02:27:02.260Z,8.29
2018-10-09T02:29:31.651Z,8.34
2018-10-09T02:32:01.027Z,8.34
2018-10-09T02:34:30.406Z,8.26
2018-10-09T02:36:59.760Z,8.28
2018-10-09T02:39:29.140Z,8.32
2018-10-09T02:41:58.543Z,8.36
2018-10-09T02:44:27.939Z,8.33
2018-10-09T02:46:57.275Z,8.31
2018-10-09T02:49:26.762Z,8.29
2018-10-09T02:51:56.127Z,8.26
2018-10-09T02:54:25.506Z,8.22
2018-10-09T02:56:54.918Z,8.19
2018-10-09T02:59:24.257Z,8.14
2018-10-09T03:01:53.774Z,8.13
2018-10-09T03:04:23.114Z,8.10
2018-10-09T03:06:52.470Z,8.01
2018-10-09T03:09:21.858Z,7.92
2018-10-09T03:11:51.314Z,7.96
2018-10-09T03:14:20.692Z,7.92
2018-10-09T03:16:50.057Z,7.94
2018-10-09T03:19:19.423Z,7.90
2018-10-09T03:21:48.836Z,7.87
2018-10-09T03:24:18.203Z,7.81
2018-10-09T03:26:47.619Z,7.76
2018-10-09T03:29:16.999Z,7.79
2018-10-09T03:31:46.379Z,7.81
2018-10-09T03:34:15.791Z,7.93
2018-10-09T03:36:45.155Z,7.92
2018-10-09T03:39:14.542Z,7.94
2018-10-09T03:41:43.902Z,7.93
2018-10-09T03:44:13.351Z,7.96
2018-10-09T03:46:42.844Z,7.92
2018-10-09T03:49:12.287Z,7.89
2018-10-09T03:51:41.707Z,7.89
2018-10-09T03:54:11.046Z,7.91
2018-10-09T03:56:40.459Z,7.98
2018-10-09T03:59:09.895Z,8.05
2018-10-09T04:01:39.524Z,8.04
2018-10-09T04:04:08.903Z,7.99
2018-10-09T04:06:38.388Z,7.96
2018-10-09T04:09:12.604Z,7.92
2018-10-09T04:11:42.432Z,7.93
2018-10-09T04:14:11.813Z,7.87
2018-10-09T04:16:41.207Z,7.81
2018-10-09T04:19:10.585Z,7.77
2018-10-09T04:21:40.020Z,7.65
2018-10-09T04:24:09.468Z,7.57
2018-10-09T04:26:38.860Z,7.56
2018-10-09T04:29:08.215Z,7.49
2018-10-09T04:31:37.580Z,7.46
2018-10-09T04:34:07.780Z,7.45
2018-10-09T04:36:37.194Z,7.45
2018-10-09T04:39:08.962Z,7.41
2018-10-09T04:41:38.380Z,7.35
2018-10-09T04:44:07.873Z,7.34
2018-10-09T04:46:37.204Z,7.38
2018-10-09T04:49:06.595Z,7.37
2018-10-09T04:51:35.930Z,7.38
2018-10-09T04:54:05.347Z,7.11
2018-10-09T04:56:34.700Z,7.07
2018-10-09T04:59:04.117Z,7.05
2018-10-09T05:01:33.504Z,7.14
2018-10-09T05:04:02.924Z,7.24
2018-10-09T05:06:32.307Z,7.36
2018-10-09T05:09:01.683Z,7.43
2018-10-09T05:11:31.107Z,7.53
2018-10-09T05:14:00.477Z,7.56
2018-10-09T05:16:29.884Z,7.60
2018-10-09T05:18:59.246Z,7.63
2018-10-09T05:21:28.608Z,7.64
2018-10-09T05:23:58.103Z,7.69
2018-10-09T05:26:27.455Z,7.72
2018-10-09T05:28:56.866Z,7.77
2018-10-09T05:31:26.273Z,7.77
2018-10-09T05:33:55.709Z,7.78
2018-10-09T05:36:25.179Z,7.80
2018-10-09T05:38:54.595Z,7.81
2018-10-09T05:41:23.971Z,7.81
2018-10-09T05:43:53.360Z,7.76
2018-10-09T05:46:22.788Z,7.75
2018-10-09T05:48:52.130Z,7.64
2018-10-09T05:51:21.557Z,7.61
2018-10-09T05:53:50.955Z,7.56
2018-10-09T05:56:20.316Z,7.50
2018-10-09T05:58:49.722Z,7.50
2018-10-09T06:01:19.172Z,7.54
2018-10-09T06:03:48.627Z,7.58
2018-10-09T06:06:18.003Z,7.63
2018-10-09T06:08:48.331Z,7.65
2018-10-09T06:11:17.727Z,7.65
2018-10-09T06:13:47.183Z,7.65
2018-10-09T06:16:16.609Z,7.69
2018-10-09T06:18:45.987Z,7.71
2018-10-09T06:21:15.395Z,7.76
2018-10-09T06:23:44.759Z,7.80
2018-10-09T06:26:14.180Z,7.85
2018-10-09T06:28:43.548Z,7.86
2018-10-09T06:31:12.901Z,7.89
2018-10-09T06:33:42.381Z,7.88
2018-10-09T06:36:11.751Z,7.90
2018-10-09T06:38:41.193Z,7.97
2018-10-09T06:41:10.604Z,7.97
2018-10-09T06:43:39.944Z,8.02
2018-10-09T06:46:09.358Z,8.05
2018-10-09T06:48:38.675Z,8.09
2018-10-09T06:51:08.087Z,8.15
2018-10-09T06:53:37.514Z,8.27
2018-10-09T06:56:06.839Z,8.34
2018-10-09T06:58:36.299Z,8.45
2018-10-09T07:01:05.741Z,8.57
2018-10-09T07:03:35.105Z,8.71
2018-10-09T07:06:04.521Z,8.82
2018-10-09T07:08:34.331Z,8.90
2018-10-09T07:11:03.767Z,8.98
2018-10-09T07:13:33.307Z,9.05
2018-10-09T07:16:02.680Z,9.18
2018-10-09T07:18:32.140Z,9.25
2018-10-09T07:21:01.531Z,9.34
2018-10-09T07:23:30.894Z,9.44
2018-10-09T07:26:00.296Z,9.61
2018-10-09T07:28:30.552Z,9.70
2018-10-09T07:30:59.959Z,9.83
2018-10-09T07:33:29.409Z,9.99
2018-10-09T07:35:58.871Z,10.13
2018-10-09T07:38:28.562Z,10.32
2018-10-09T07:40:57.954Z,10.42
2018-10-09T07:43:27.324Z,10.57
2018-10-09T07:45:56.690Z,10.73
2018-10-09T07:48:26.132Z,10.96
2018-10-09T07:50:55.541Z,11.02
2018-10-09T07:53:24.948Z,11.13
2018-10-09T07:55:54.345Z,11.30
2018-10-09T07:58:24.025Z,11.38
2018-10-09T08:00:53.491Z,11.53
2018-10-09T08:03:22.964Z,11.63
2018-10-09T08:05:52.359Z,11.72
2018-10-09T08:08:22.014Z,11.77
2018-10-09T08:10:51.478Z,11.83
2018-10-09T08:13:20.858Z,11.99
2018-10-09T08:15:50.263Z,12.10
2018-10-09T08:18:19.771Z,12.16
2018-10-09T08:20:49.140Z,12.16
2018-10-09T08:23:18.539Z,12.26
2018-10-09T08:25:47.954Z,12.35
2018-10-09T08:28:17.367Z,12.44
2018-10-09T08:30:46.783Z,12.47
2018-10-09T08:33:16.211Z,12.52
2018-10-09T08:35:45.612Z,12.55
2018-10-09T08:38:15.030Z,12.64
2018-10-09T08:40:44.428Z,12.64
2018-10-09T08:43:13.814Z,12.67
2018-10-09T08:45:43.531Z,12.83
2018-10-09T08:48:12.909Z,12.97
2018-10-09T08:50:42.358Z,13.02
2018-10-09T08:53:11.737Z,12.99
2018-10-09T08:55:42.328Z,13.09
2018-10-09T08:58:11.724Z,13.11
2018-10-09T09:00:41.132Z,13.15
2018-10-09T09:03:10.544Z,13.22
2018-10-09T09:05:40.626Z,13.09
2018-10-09T09:08:10.145Z,13.15
2018-10-09T09:10:39.515Z,13.27
2018-10-09T09:13:08.919Z,13.32
2018-10-09T09:15:39.095Z,13.37
2018-10-09T09:18:08.527Z,13.47
2018-10-09T09:20:38.097Z,13.48
2018-10-09T09:23:07.404Z,13.46
2018-10-09T09:25:37.009Z,13.57
2018-10-09T09:28:06.649Z,13.57
2018-10-09T09:30:36.130Z,13.53
2018-10-09T09:33:05.535Z,13.56
2018-10-09T09:35:35.040Z,13.60
2018-10-09T09:38:04.480Z,13.63
2018-10-09T09:40:33.983Z,13.70
2018-10-09T09:43:03.488Z,13.68
2018-10-09T09:45:32.831Z,13.65
2018-10-09T09:48:02.221Z,13.79
2018-10-09T09:50:31.665Z,13.82
2018-10-09T09:53:01.176Z,13.88
2018-10-09T09:55:30.599Z,13.97
2018-10-09T09:58:00.140Z,14.04
2018-10-09T10:00:34.827Z,14.13
2018-10-09T10:03:04.339Z,14.32
2018-10-09T10:05:33.859Z,14.34
2018-10-09T10:08:03.235Z,14.47
2018-10-09T10:10:32.651Z,14.49
2018-10-09T10:13:02.124Z,14.50
2018-10-09T10:15:31.543Z,14.57
2018-10-09T10:18:00.956Z,14.73
2018-10-09T10:20:30.424Z,14.83
2018-10-09T10:22:59.790Z,14.85
2018-10-09T10:25:29.224Z,14.90
2018-10-09T10:27:58.775Z,14.83
2018-10-09T10:30:28.149Z,14.83
2018-10-09T10:32:57.539Z,14.87
2018-10-09T10:35:27.018Z,14.92
2018-10-09T10:37:56.438Z,14.85
2018-10-09T10:40:25.881Z,14.89
2018-10-09T10:42:55.651Z,14.89
2018-10-09T10:45:25.009Z,15.05
2018-10-09T10:47:54.424Z,15.19
2018-10-09T10:50:23.934Z,15.42
2018-10-09T10:52:53.364Z,15.46
2018-10-09T10:55:22.747Z,15.42
2018-10-09T10:57:52.111Z,15.59
2018-10-09T11:00:21.545Z,15.70
2018-10-09T11:02:50.899Z,15.54
2018-10-09T11:05:20.263Z,15.55
2018-10-09T11:07:49.693Z,15.63
2018-10-09T11:10:19.044Z,15.62
2018-10-09T11:12:48.487Z,15.79
2018-10-09T11:15:17.874Z,15.82
2018-10-09T11:17:47.285Z,15.92
2018-10-09T11:20:17.019Z,16.08
2018-10-09T11:22:46.454Z,16.19
2018-10-09T11:25:16.022Z,16.32
2018-10-09T11:27:45.452Z,16.46
2018-10-09T11:30:14.906Z,16.69
2018-10-09T11:32:44.241Z,16.81
2018-10-09T11:35:13.688Z,17.08
2018-10-09T11:37:43.062Z,17.13
2018-10-09T11:40:12.442Z,17.09
2018-10-09T11:42:41.845Z,17.10
2018-10-09T11:45:11.304Z,17.01
2018-10-09T11:47:40.692Z,17.12
2018-10-09T11:50:10.158Z,17.36
2018-10-09T11:52:39.633Z,17.31
2018-10-09T11:55:09.033Z,17.30
2018-10-09T11:57:38.464Z,17.25
2018-10-09T12:00:08.994Z,17.23
2018-10-09T12:02:38.414Z,17.27
2018-10-09T12:05:07.891Z,17.15
2018-10-09T12:07:37.288Z,17.03
2018-10-09T12:10:06.719Z,17.12
2018-10-09T12:12:36.113Z,17.24
2018-10-09T12:15:05.755Z,17.39
2018-10-09T12:17:35.246Z,17.31
2018-10-09T12:20:05.368Z,17.50
2018-10-09T12:22:34.725Z,17.67
2018-10-09T12:25:04.168Z,17.86
2018-10-09T12:27:33.566Z,18.07
2018-10-09T12:30:02.980Z,18.63
2018-10-09T12:32:32.439Z,18.81
2018-10-09T12:35:01.858Z,19.53
2018-10-09T12:37:31.259Z,20.48
2018-10-09T12:40:00.615Z,20.93
2018-10-09T12:42:29.981Z,20.76
2018-10-09T12:44:59.414Z,21.48
2018-10-09T12:47:28.786Z,22.73
2018-10-09T12:49:58.816Z,23.65
2018-10-09T12:52:28.224Z,24.83
2018-10-09T12:54:57.851Z,25.38
2018-10-09T12:57:27.216Z,25.36
2018-10-09T12:59:56.660Z,26.41
2018-10-09T13:02:26.124Z,26.74
2018-10-09T13:04:55.414Z,26.35
2018-10-09T13:07:24.888Z,26.16
2018-10-09T13:09:54.362Z,25.43
2018-10-09T13:12:23.759Z,26.52
2018-10-09T13:14:53.276Z,27.00
2018-10-09T13:17:22.781Z,25.61
2018-10-09T13:19:52.256Z,25.26
2018-10-09T13:22:21.878Z,24.65
2018-10-09T13:24:51.078Z,24.58
2018-10-09T13:27:20.468Z,23.94
2018-10-09T13:29:49.932Z,23.03
2018-10-09T13:32:19.355Z,22.93
2018-10-09T13:37:32.373Z,23.27
2018-10-09T13:40:02.703Z,23.45
2018-10-09T13:42:32.143Z,23.24
2018-10-09T13:45:01.481Z,23.02
2018-10-09T13:47:31.087Z,23.55
2018-10-09T13:50:00.291Z,23.56
2018-10-09T13:52:29.714Z,24.33
2018-10-09T13:54:59.101Z,24.44
2018-10-09T13:59:57.016Z,23.88
2018-10-09T14:02:26.406Z,24.16
2018-10-09T14:04:55.822Z,22.82
2018-10-09T14:07:25.444Z,22.52
2018-10-09T14:09:54.846Z,22.12
2018-10-09T14:12:24.190Z,21.59
2018-10-09T14:14:53.736Z,21.32
2018-10-09T14:17:23.106Z,21.00
2018-10-09T14:19:52.592Z,20.45
2018-10-09T14:22:22.548Z,20.31
2018-10-09T14:24:51.955Z,20.20
2018-10-09T14:27:21.389Z,20.12
2018-10-09T14:29:50.764Z,20.00
2018-10-09T14:32:20.180Z,19.76
2018-10-09T14:34:49.596Z,19.87
2018-10-09T14:37:18.965Z,19.70
2018-10-09T14:39:48.345Z,19.64
2018-10-09T14:42:18.142Z,19.58
2018-10-09T14:44:47.597Z,19.63
2018-10-09T14:47:17.014Z,19.43
2018-10-09T14:49:46.483Z,19.14
2018-10-09T14:52:15.886Z,19.21
2018-10-09T14:54:45.278Z,19.00
2018-10-09T14:57:14.655Z,18.75
2018-10-09T14:59:44.038Z,18.77
2018-10-09T15:02:13.503Z,18.67
2018-10-09T15:04:42.948Z,18.56
2018-10-09T15:07:12.409Z,18.54
2018-10-09T15:09:41.895Z,18.55
2018-10-09T15:12:11.248Z,18.58
2018-10-09T15:14:40.629Z,18.58
2018-10-09T15:17:10.150Z,18.51
2018-10-09T15:19:39.420Z,18.51
2018-10-09T15:22:08.874Z,18.57
2018-10-09T15:24:38.249Z,18.44
2018-10-09T15:27:07.644Z,18.32
2018-10-09T15:29:37.067Z,18.32
2018-10-09T15:32:06.458Z,18.27
2018-10-09T15:34:35.904Z,18.29
2018-10-09T15:37:05.273Z,18.19
2018-10-09T15:39:34.771Z,18.20
2018-10-09T15:42:04.223Z,18.16
2018-10-09T15:44:33.653Z,18.08
2018-10-09T15:47:03.036Z,17.95
2018-10-09T15:49:32.475Z,17.82
2018-10-09T15:52:01.853Z,17.73
2018-10-09T15:54:31.254Z,17.59
2018-10-09T15:57:00.743Z,17.49
2018-10-09T15:59:30.114Z,17.37
2018-10-09T16:01:59.536Z,17.22
2018-10-09T16:04:28.976Z,17.09
2018-10-09T16:06:58.471Z,17.00
2018-10-09T16:09:28.004Z,16.84
2018-10-09T16:11:57.379Z,16.64
2018-10-09T16:14:26.783Z,16.52
2018-10-09T16:16:56.204Z,16.32
2018-10-09T16:19:25.686Z,16.08
2018-10-09T16:21:55.135Z,16.00
2018-10-09T16:24:24.546Z,15.82
2018-10-09T16:27:00.283Z,15.68
2018-10-09T16:29:29.677Z,15.48
2018-10-09T16:31:59.047Z,15.27
2018-10-09T16:34:28.420Z,15.23
2018-10-09T16:36:57.806Z,15.07
2018-10-09T16:39:27.186Z,15.02
2018-10-09T16:41:56.680Z,15.08
2018-10-09T16:44:26.064Z,15.02
2018-10-09T16:46:55.492Z,14.86
2018-10-09T16:49:24.943Z,14.64
2018-10-09T16:51:54.334Z,14.51
2018-10-09T16:54:23.775Z,14.32
2018-10-09T16:56:53.143Z,14.18
2018-10-09T16:59:22.584Z,14.00
2018-10-09T17:01:51.955Z,13.67
2018-10-09T17:04:21.356Z,13.45
2018-10-09T17:06:50.717Z,13.39
2018-10-09T17:09:20.125Z,13.33
2018-10-09T17:11:49.530Z,13.27
2018-10-09T17:14:19.028Z,13.20
2018-10-09T17:16:48.833Z,13.02
2018-10-09T17:19:18.354Z,12.92
2018-10-09T17:21:48.158Z,12.85
2018-10-09T17:24:17.508Z,12.70
2018-10-09T17:26:46.925Z,12.59
2018-10-09T17:29:16.319Z,12.46
2018-10-09T17:31:45.675Z,12.38
2018-10-09T17:34:15.071Z,12.29
2018-10-09T17:36:44.468Z,12.21
2018-10-09T17:39:14.004Z,12.09
2018-10-09T17:41:43.426Z,12.08
2018-10-09T17:44:12.795Z,12.01
2018-10-09T17:46:42.216Z,11.92
2018-10-09T17:49:11.611Z,11.84
2018-10-09T17:51:40.995Z,11.83
2018-10-09T17:54:11.204Z,11.76
2018-10-09T17:56:40.588Z,11.69
2018-10-09T17:59:10.014Z,11.61
2018-10-09T18:01:39.488Z,11.53
2018-10-09T18:04:09.048Z,11.49
2018-10-09T18:06:38.512Z,11.44
2018-10-09T18:09:11.513Z,11.43
2018-10-09T18:11:41.404Z,11.41
2018-10-09T18:14:11.632Z,11.33
2018-10-09T18:16:41.065Z,11.23
2018-10-09T18:19:10.468Z,11.05
2018-10-09T18:21:39.807Z,10.94
2018-10-09T18:24:09.196Z,10.88
2018-10-09T18:26:38.933Z,10.77
2018-10-09T18:29:08.464Z,10.67
2018-10-09T18:31:37.905Z,10.69
2018-10-09T18:34:07.425Z,10.68
2018-10-09T18:36:36.877Z,10.65
2018-10-09T18:39:11.512Z,10.62
2018-10-09T18:41:41.285Z,10.62
2018-10-09T18:44:10.673Z,10.62
2018-10-09T18:46:40.434Z,10.59
2018-10-09T18:49:10.101Z,10.52
2018-10-09T18:51:39.839Z,10.50
2018-10-09T18:54:09.443Z,10.52
2018-10-09T18:56:38.955Z,10.42
2018-10-09T18:59:08.482Z,10.39
2018-10-09T19:01:38.085Z,10.32
2018-10-09T19:04:07.997Z,10.34
2018-10-09T19:06:37.476Z,10.30
2018-10-09T19:09:10.968Z,10.30
2018-10-09T19:11:40.468Z,10.23
2018-10-09T19:14:09.853Z,10.19
2018-10-09T19:16:39.331Z,10.15
2018-10-09T19:19:08.790Z,10.11
2018-10-09T19:21:38.311Z,10.08
2018-10-09T19:24:08.147Z,9.95
2018-10-09T19:26:37.601Z,9.88
2018-10-09T19:29:07.035Z,9.88
2018-10-09T19:31:36.452Z,9.80
2018-10-09T19:34:06.215Z,9.75
2018-10-09T19:36:35.648Z,9.76
2018-10-09T19:39:08.230Z,9.69
2018-10-09T19:41:37.600Z,9.71
2018-10-09T19:44:07.016Z,9.72
2018-10-09T19:46:36.963Z,9.72
2018-10-09T19:49:06.444Z,9.72
2018-10-09T19:51:35.946Z,9.71
2018-10-09T19:54:05.382Z,9.67
2018-10-09T19:56:34.759Z,9.65
2018-10-09T19:59:04.293Z,9.60
2018-10-09T20:01:33.997Z,9.55
2018-10-09T20:04:03.466Z,9.51
2018-10-09T20:06:33.105Z,9.54
2018-10-09T20:09:02.607Z,9.54
2018-10-09T20:11:32.073Z,9.48
2018-10-09T20:14:01.501Z,9.50
2018-10-09T20:16:30.980Z,9.48
2018-10-09T20:19:00.375Z,9.49
2018-10-09T20:21:29.756Z,9.46
2018-10-09T20:23:59.165Z,9.37
2018-10-09T20:26:28.661Z,9.34
2018-10-09T20:28:58.045Z,9.29
2018-10-09T20:31:27.547Z,9.26
2018-10-09T20:33:56.947Z,9.25
2018-10-09T20:36:26.519Z,9.22
2018-10-09T20:38:55.975Z,9.18
2018-10-09T20:41:25.388Z,9.03
2018-10-09T20:43:54.807Z,9.03
2018-10-09T20:46:24.279Z,9.04
2018-10-09T20:48:53.638Z,9.08
2018-10-09T20:51:23.058Z,9.09
2018-10-09T20:53:52.452Z,9.08
2018-10-09T20:56:21.818Z,9.08
2018-10-09T20:58:51.274Z,8.99
2018-10-09T21:01:20.755Z,9.00
2018-10-09T21:03:50.148Z,8.99
2018-10-09T21:06:19.581Z,9.01
2018-10-09T21:08:49.225Z,8.99
2018-10-09T21:11:18.638Z,8.91
2018-10-09T21:13:47.983Z,8.81
2018-10-09T21:16:17.362Z,8.86
2018-10-09T21:18:46.755Z,8.93
2018-10-09T21:21:16.219Z,8.92
2018-10-09T21:23:45.620Z,8.96
2018-10-09T21:26:14.959Z,8.98
2018-10-09T21:28:44.358Z,8.97
2018-10-09T21:31:13.723Z,8.94
2018-10-09T21:33:43.137Z,8.95
2018-10-09T21:36:12.492Z,8.95
2018-10-09T21:38:41.947Z,8.97
2018-10-09T21:41:11.316Z,9.01
2018-10-09T21:43:40.759Z,9.00
2018-10-09T21:46:10.158Z,8.96
2018-10-09T21:48:39.544Z,8.97
2018-10-09T21:51:09.004Z,8.89
2018-10-09T21:53:38.390Z,8.85
2018-10-09T21:56:07.835Z,8.82
2018-10-09T21:58:37.184Z,8.66
2018-10-09T22:01:11.395Z,8.63
2018-10-09T22:03:41.495Z,8.51
2018-10-09T22:06:11.315Z,8.49
2018-10-09T22:08:40.692Z,8.44
2018-10-09T22:11:10.041Z,8.42
2018-10-09T22:13:39.419Z,8.43
2018-10-09T22:16:08.803Z,8.35
2018-10-09T22:18:38.207Z,8.26
2018-10-09T22:21:07.792Z,8.27
2018-10-09T22:23:37.203Z,8.22
2018-10-09T22:26:06.592Z,8.22
2018-10-09T22:28:35.967Z,8.21
2018-10-09T22:31:05.389Z,8.21
2018-10-09T22:33:34.801Z,8.14
2018-10-09T22:36:04.162Z,8.11
2018-10-09T22:38:33.625Z,8.09
2018-10-09T22:41:02.961Z,8.07
2018-10-09T22:43:32.298Z,8.09
2018-10-09T22:46:02.030Z,7.97
2018-10-09T22:48:31.427Z,7.98
2018-10-09T22:51:00.802Z,7.99
2018-10-09T22:53:30.287Z,8.01
2018-10-09T22:55:59.663Z,8.03
2018-10-09T22:58:29.024Z,7.98
2018-10-09T23:00:58.371Z,7.92
2018-10-09T23:03:27.818Z,7.82
2018-10-09T23:05:57.183Z,7.71
2018-10-09T23:08:26.535Z,7.70
2018-10-09T23:10:55.925Z,7.66
2018-10-09T23:13:25.235Z,7.73
2018-10-09T23:15:54.590Z,7.74
2018-10-09T23:18:23.967Z,7.77
2018-10-09T23:20:53.360Z,7.77
2018-10-09T23:23:22.678Z,7.75
2018-10-09T23:25:52.024Z,7.79
2018-10-09T23:28:21.413Z,7.81
2018-10-09T23:30:50.786Z,7.78
2018-10-09T23:33:26.910Z,7.78
2018-10-09T23:35:56.248Z,7.75
2018-10-09T23:38:25.613Z,7.76
2018-10-09T23:40:54.995Z,7.73
2018-10-09T23:43:24.376Z,7.72
2018-10-09T23:45:53.780Z,7.63
2018-10-09T23:48:23.195Z,7.61
2018-10-09T23:50:52.703Z,7.63
2018-10-09T23:53:22.045Z,7.63
2018-10-09T23:55:51.431Z,7.65
2018-10-09T23:58:20.777Z,7.67
